sensor_id;sensor_type;location;lat;lon;timestamp;temperature;humidity
14893;DHT22;7538;53.626;9.906;2023-06-04T00:01:41;12.90;99.90
14893;DHT22;7538;53.626;9.906;2023-06-04T00:04:11;12.80;99.90
14893;DHT22;7538;53.626;9.906;2023-06-04T00:06:38;12.80;99.90
14893;DHT22;7538;53.626;9.906;2023-06-04T00:09:05;12.70;99.90
14893;DHT22;7538;53.626;9.906;2023-06-04T00:11:32;12.60;99.90
14893;DHT22;7538;53.626;9.906;2023-06-04T00:14:00;12.70;99.90
14893;DHT22;7538;53.626;9.906;2023-06-04T00:16:27;12.60;99.90
14893;DHT22;7538;53.626;9.906;2023-06-04T00:18:54;12.60;99.90
14893;DHT22;7538;53.626;9.906;2023-06-04T00:21:22;12.50;99.90
14893;DHT22;7538;53.626;9.906;2023-06-04T00:23:49;12.50;99.90
14893;DHT22;7538;53.626;9.906;2023-06-04T00:26:16;12.40;99.90
14893;DHT22;7538;53.626;9.906;2023-06-04T00:28:43;12.40;99.90
14893;DHT22;7538;53.626;9.906;2023-06-04T00:31:10;12.40;99.90
14893;DHT22;7538;53.626;9.906;2023-06-04T00:33:38;12.30;99.90
14893;DHT22;7538;53.626;9.906;2023-06-04T00:36:05;12.30;99.90
14893;DHT22;7538;53.626;9.906;2023-06-04T00:38:33;12.20;99.90
14893;DHT22;7538;53.626;9.906;2023-06-04T00:41:00;12.20;99.90
14893;DHT22;7538;53.626;9.906;2023-06-04T00:43:27;12.10;99.90
14893;DHT22;7538;53.626;9.906;2023-06-04T00:45:57;12.10;99.90
14893;DHT22;7538;53.626;9.906;2023-06-04T00:48:25;12.00;99.90
14893;DHT22;7538;53.626;9.906;2023-06-04T00:50:53;12.00;99.90
14893;DHT22;7538;53.626;9.906;2023-06-04T00:53:20;12.00;99.90
14893;DHT22;7538;53.626;9.906;2023-06-04T00:55:49;12.00;99.90
14893;DHT22;7538;53.626;9.906;2023-06-04T00:58:15;11.90;99.90
14893;DHT22;7538;53.626;9.906;2023-06-04T01:00:43;11.90;99.90
14893;DHT22;7538;53.626;9.906;2023-06-04T01:03:13;11.90;99.90
14893;DHT22;7538;53.626;9.906;2023-06-04T01:05:43;11.80;99.90
14893;DHT22;7538;53.626;9.906;2023-06-04T01:08:12;11.80;99.90
14893;DHT22;7538;53.626;9.906;2023-06-04T01:10:51;11.70;99.90
14893;DHT22;7538;53.626;9.906;2023-06-04T01:13:18;11.70;99.90
14893;DHT22;7538;53.626;9.906;2023-06-04T01:15:45;11.70;99.90
14893;DHT22;7538;53.626;9.906;2023-06-04T01:18:15;11.60;99.90
14893;DHT22;7538;53.626;9.906;2023-06-04T01:20:55;11.60;99.90
14893;DHT22;7538;53.626;9.906;2023-06-04T01:23:28;11.50;99.90
14893;DHT22;7538;53.626;9.906;2023-06-04T01:26:01;11.50;99.90
14893;DHT22;7538;53.626;9.906;2023-06-04T01:28:30;11.50;99.90
14893;DHT22;7538;53.626;9.906;2023-06-04T01:30:57;11.40;99.90
14893;DHT22;7538;53.626;9.906;2023-06-04T01:33:25;11.40;99.90
14893;DHT22;7538;53.626;9.906;2023-06-04T01:35:52;11.30;99.90
14893;DHT22;7538;53.626;9.906;2023-06-04T01:38:19;11.30;99.90
14893;DHT22;7538;53.626;9.906;2023-06-04T01:40:46;11.30;99.90
14893;DHT22;7538;53.626;9.906;2023-06-04T01:43:14;11.30;99.90
14893;DHT22;7538;53.626;9.906;2023-06-04T01:45:41;11.20;99.90
14893;DHT22;7538;53.626;9.906;2023-06-04T01:48:08;11.20;99.90
14893;DHT22;7538;53.626;9.906;2023-06-04T01:50:35;11.20;99.90
14893;DHT22;7538;53.626;9.906;2023-06-04T01:53:02;11.10;99.90
14893;DHT22;7538;53.626;9.906;2023-06-04T01:55:29;11.10;99.90
14893;DHT22;7538;53.626;9.906;2023-06-04T01:57:59;11.10;99.90
14893;DHT22;7538;53.626;9.906;2023-06-04T02:00:27;11.00;99.90
14893;DHT22;7538;53.626;9.906;2023-06-04T02:02:54;11.00;99.90
14893;DHT22;7538;53.626;9.906;2023-06-04T02:05:21;10.90;99.90
14893;DHT22;7538;53.626;9.906;2023-06-04T02:07:48;10.90;99.90
14893;DHT22;7538;53.626;9.906;2023-06-04T02:10:17;10.90;99.90
14893;DHT22;7538;53.626;9.906;2023-06-04T02:12:54;10.90;99.90
14893;DHT22;7538;53.626;9.906;2023-06-04T02:15:22;10.80;99.90
14893;DHT22;7538;53.626;9.906;2023-06-04T02:17:50;10.80;99.90
14893;DHT22;7538;53.626;9.906;2023-06-04T02:20:17;10.80;99.90
14893;DHT22;7538;53.626;9.906;2023-06-04T02:22:44;10.80;99.90
14893;DHT22;7538;53.626;9.906;2023-06-04T02:25:11;10.80;99.90
14893;DHT22;7538;53.626;9.906;2023-06-04T02:27:38;10.70;99.90
14893;DHT22;7538;53.626;9.906;2023-06-04T02:30:06;10.70;99.90
14893;DHT22;7538;53.626;9.906;2023-06-04T02:32:33;10.60;99.90
14893;DHT22;7538;53.626;9.906;2023-06-04T02:35:03;10.60;99.90
14893;DHT22;7538;53.626;9.906;2023-06-04T02:37:30;13.60;99.90
14893;DHT22;7538;53.626;9.906;2023-06-04T02:39:57;10.60;99.90
14893;DHT22;7538;53.626;9.906;2023-06-04T02:42:24;10.60;99.90
14893;DHT22;7538;53.626;9.906;2023-06-04T02:44:50;10.50;99.90
14893;DHT22;7538;53.626;9.906;2023-06-04T02:47:17;10.50;99.90
14893;DHT22;7538;53.626;9.906;2023-06-04T02:49:45;10.50;99.90
14893;DHT22;7538;53.626;9.906;2023-06-04T02:52:14;10.50;99.90
14893;DHT22;7538;53.626;9.906;2023-06-04T02:54:41;10.50;99.90
14893;DHT22;7538;53.626;9.906;2023-06-04T02:57:08;10.50;99.90
14893;DHT22;7538;53.626;9.906;2023-06-04T02:59:35;10.40;99.90
14893;DHT22;7538;53.626;9.906;2023-06-04T03:02:02;10.40;99.90
14893;DHT22;7538;53.626;9.906;2023-06-04T03:04:28;10.40;99.90
14893;DHT22;7538;53.626;9.906;2023-06-04T03:07:00;10.40;99.90
14893;DHT22;7538;53.626;9.906;2023-06-04T03:09:30;10.40;99.90
14893;DHT22;7538;53.626;9.906;2023-06-04T03:11:59;10.30;99.90
14893;DHT22;7538;53.626;9.906;2023-06-04T03:14:26;10.40;99.90
14893;DHT22;7538;53.626;9.906;2023-06-04T03:16:58;10.30;99.90
14893;DHT22;7538;53.626;9.906;2023-06-04T03:19:33;10.30;99.90
14893;DHT22;7538;53.626;9.906;2023-06-04T03:22:00;10.30;99.90
14893;DHT22;7538;53.626;9.906;2023-06-04T03:24:33;10.30;99.90
14893;DHT22;7538;53.626;9.906;2023-06-04T03:27:00;13.70;99.90
14893;DHT22;7538;53.626;9.906;2023-06-04T03:29:27;10.30;99.90
14893;DHT22;7538;53.626;9.906;2023-06-04T03:31:54;10.30;99.90
14893;DHT22;7538;53.626;9.906;2023-06-04T03:34:21;11.00;99.90
14893;DHT22;7538;53.626;9.906;2023-06-04T03:36:50;10.30;99.90
14893;DHT22;7538;53.626;9.906;2023-06-04T03:39:17;10.30;99.90
14893;DHT22;7538;53.626;9.906;2023-06-04T03:41:45;10.40;99.90
14893;DHT22;7538;53.626;9.906;2023-06-04T03:44:13;10.40;99.90
14893;DHT22;7538;53.626;9.906;2023-06-04T03:46:40;10.40;99.90
14893;DHT22;7538;53.626;9.906;2023-06-04T03:49:07;10.40;99.90
14893;DHT22;7538;53.626;9.906;2023-06-04T03:51:34;10.40;99.90
14893;DHT22;7538;53.626;9.906;2023-06-04T03:54:02;10.50;99.90
14893;DHT22;7538;53.626;9.906;2023-06-04T03:56:29;10.50;99.90
14893;DHT22;7538;53.626;9.906;2023-06-04T03:58:57;10.50;99.90
14893;DHT22;7538;53.626;9.906;2023-06-04T04:01:25;10.60;99.90
14893;DHT22;7538;53.626;9.906;2023-06-04T04:03:52;10.60;99.90
14893;DHT22;7538;53.626;9.906;2023-06-04T04:06:21;10.70;99.90
14893;DHT22;7538;53.626;9.906;2023-06-04T04:08:50;10.70;99.90
14893;DHT22;7538;53.626;9.906;2023-06-04T04:11:17;10.80;99.90
14893;DHT22;7538;53.626;9.906;2023-06-04T04:13:45;10.90;99.90
14893;DHT22;7538;53.626;9.906;2023-06-04T04:16:13;10.90;99.90
14893;DHT22;7538;53.626;9.906;2023-06-04T04:18:42;11.00;99.90
14893;DHT22;7538;53.626;9.906;2023-06-04T04:21:09;11.00;99.90
14893;DHT22;7538;53.626;9.906;2023-06-04T04:23:38;11.10;99.90
14893;DHT22;7538;53.626;9.906;2023-06-04T04:26:05;14.60;99.90
14893;DHT22;7538;53.626;9.906;2023-06-04T04:28:32;11.30;99.90
14893;DHT22;7538;53.626;9.906;2023-06-04T04:31:00;11.40;99.90
14893;DHT22;7538;53.626;9.906;2023-06-04T04:33:29;11.50;99.90
14893;DHT22;7538;53.626;9.906;2023-06-04T04:36:02;11.50;99.90
14893;DHT22;7538;53.626;9.906;2023-06-04T04:38:29;11.60;99.90
14893;DHT22;7538;53.626;9.906;2023-06-04T04:40:59;11.70;99.90
14893;DHT22;7538;53.626;9.906;2023-06-04T04:43:30;11.80;99.90
14893;DHT22;7538;53.626;9.906;2023-06-04T04:45:57;11.90;99.90
14893;DHT22;7538;53.626;9.906;2023-06-04T04:48:25;12.00;99.90
14893;DHT22;7538;53.626;9.906;2023-06-04T04:50:53;12.10;99.90
14893;DHT22;7538;53.626;9.906;2023-06-04T04:53:21;12.20;99.90
14893;DHT22;7538;53.626;9.906;2023-06-04T04:55:48;12.40;99.90
14893;DHT22;7538;53.626;9.906;2023-06-04T04:58:15;12.50;99.90
14893;DHT22;7538;53.626;9.906;2023-06-04T05:00:42;12.70;99.90
14893;DHT22;7538;53.626;9.906;2023-06-04T05:03:09;12.80;99.90
14893;DHT22;7538;53.626;9.906;2023-06-04T05:05:36;13.10;99.90
14893;DHT22;7538;53.626;9.906;2023-06-04T05:08:04;13.40;99.90
14893;DHT22;7538;53.626;9.906;2023-06-04T05:10:31;13.80;99.90
14893;DHT22;7538;53.626;9.906;2023-06-04T05:12:59;14.30;99.90
14893;DHT22;7538;53.626;9.906;2023-06-04T05:15:27;14.80;99.90
14893;DHT22;7538;53.626;9.906;2023-06-04T05:17:55;15.10;99.90
14893;DHT22;7538;53.626;9.906;2023-06-04T05:20:23;15.30;99.90
14893;DHT22;7538;53.626;9.906;2023-06-04T05:22:50;15.50;99.90
14893;DHT22;7538;53.626;9.906;2023-06-04T05:25:19;15.80;99.90
14893;DHT22;7538;53.626;9.906;2023-06-04T05:27:46;16.20;99.60
14893;DHT22;7538;53.626;9.906;2023-06-04T05:30:15;16.70;98.60
14893;DHT22;7538;53.626;9.906;2023-06-04T05:32:42;17.40;96.70
14893;DHT22;7538;53.626;9.906;2023-06-04T05:35:09;18.20;95.10
14893;DHT22;7538;53.626;9.906;2023-06-04T05:37:37;19.00;93.70
14893;DHT22;7538;53.626;9.906;2023-06-04T05:40:07;19.70;91.90
14893;DHT22;7538;53.626;9.906;2023-06-04T05:42:36;20.50;90.80
14893;DHT22;7538;53.626;9.906;2023-06-04T05:45:03;21.30;88.60
14893;DHT22;7538;53.626;9.906;2023-06-04T05:47:30;22.20;85.60
14893;DHT22;7538;53.626;9.906;2023-06-04T05:49:57;23.20;81.90
14893;DHT22;7538;53.626;9.906;2023-06-04T05:52:24;24.10;78.10
14893;DHT22;7538;53.626;9.906;2023-06-04T05:54:51;24.90;74.40
14893;DHT22;7538;53.626;9.906;2023-06-04T05:57:18;25.60;71.00
14893;DHT22;7538;53.626;9.906;2023-06-04T05:59:46;26.20;68.00
14893;DHT22;7538;53.626;9.906;2023-06-04T06:02:13;26.80;65.70
14893;DHT22;7538;53.626;9.906;2023-06-04T06:04:40;27.30;62.90
14893;DHT22;7538;53.626;9.906;2023-06-04T06:07:07;27.90;59.90
14893;DHT22;7538;53.626;9.906;2023-06-04T06:09:34;28.30;58.10
14893;DHT22;7538;53.626;9.906;2023-06-04T06:12:02;28.70;56.80
14893;DHT22;7538;53.626;9.906;2023-06-04T06:14:29;29.20;55.30
14893;DHT22;7538;53.626;9.906;2023-06-04T06:16:57;29.70;54.10
14893;DHT22;7538;53.626;9.906;2023-06-04T06:19:24;30.10;52.70
14893;DHT22;7538;53.626;9.906;2023-06-04T06:21:51;30.50;51.40
14893;DHT22;7538;53.626;9.906;2023-06-04T06:24:18;31.00;49.70
14893;DHT22;7538;53.626;9.906;2023-06-04T06:26:45;31.30;48.30
14893;DHT22;7538;53.626;9.906;2023-06-04T06:29:12;31.60;47.00
14893;DHT22;7538;53.626;9.906;2023-06-04T06:31:39;31.40;46.00
14893;DHT22;7538;53.626;9.906;2023-06-04T06:34:07;32.30;45.70
14893;DHT22;7538;53.626;9.906;2023-06-04T06:36:34;32.70;44.60
14893;DHT22;7538;53.626;9.906;2023-06-04T06:39:00;33.00;44.10
14893;DHT22;7538;53.626;9.906;2023-06-04T06:41:28;33.40;42.50
14893;DHT22;7538;53.626;9.906;2023-06-04T06:43:56;33.70;41.40
14893;DHT22;7538;53.626;9.906;2023-06-04T06:46:23;33.80;41.00
14893;DHT22;7538;53.626;9.906;2023-06-04T06:48:50;34.00;39.80
14893;DHT22;7538;53.626;9.906;2023-06-04T06:51:18;34.20;38.90
14893;DHT22;7538;53.626;9.906;2023-06-04T06:53:45;34.40;38.00
14893;DHT22;7538;53.626;9.906;2023-06-04T06:56:13;34.70;37.60
14893;DHT22;7538;53.626;9.906;2023-06-04T06:58:40;34.80;37.30
14893;DHT22;7538;53.626;9.906;2023-06-04T07:01:07;37.70;39.10
14893;DHT22;7538;53.626;9.906;2023-06-04T07:03:34;35.30;36.40
14893;DHT22;7538;53.626;9.906;2023-06-04T07:06:01;35.50;35.40
14893;DHT22;7538;53.626;9.906;2023-06-04T07:08:29;35.70;35.00
14893;DHT22;7538;53.626;9.906;2023-06-04T07:10:56;36.00;35.40
14893;DHT22;7538;53.626;9.906;2023-06-04T07:13:23;36.40;34.80
14893;DHT22;7538;53.626;9.906;2023-06-04T07:15:50;36.50;33.50
14893;DHT22;7538;53.626;9.906;2023-06-04T07:18:17;36.60;33.20
14893;DHT22;7538;53.626;9.906;2023-06-04T07:20:44;36.80;33.20
14893;DHT22;7538;53.626;9.906;2023-06-04T07:23:11;37.00;33.20
14893;DHT22;7538;53.626;9.906;2023-06-04T07:25:39;37.20;32.20
14893;DHT22;7538;53.626;9.906;2023-06-04T07:28:06;37.30;32.10
14893;DHT22;7538;53.626;9.906;2023-06-04T07:30:33;37.60;32.50
14893;DHT22;7538;53.626;9.906;2023-06-04T07:33:01;37.70;31.30
14893;DHT22;7538;53.626;9.906;2023-06-04T07:35:28;37.90;31.70
14893;DHT22;7538;53.626;9.906;2023-06-04T07:37:55;38.00;31.50
14893;DHT22;7538;53.626;9.906;2023-06-04T07:40:22;38.10;30.70
14893;DHT22;7538;53.626;9.906;2023-06-04T07:42:50;38.30;30.00
14893;DHT22;7538;53.626;9.906;2023-06-04T07:45:17;38.30;30.00
14893;DHT22;7538;53.626;9.906;2023-06-04T07:47:44;38.40;29.10
14893;DHT22;7538;53.626;9.906;2023-06-04T07:50:11;38.50;29.10
14893;DHT22;7538;53.626;9.906;2023-06-04T07:52:38;38.50;29.10
14893;DHT22;7538;53.626;9.906;2023-06-04T07:55:05;38.50;29.10
14893;DHT22;7538;53.626;9.906;2023-06-04T07:57:34;38.50;28.70
14893;DHT22;7538;53.626;9.906;2023-06-04T08:00:03;38.70;28.50
14893;DHT22;7538;53.626;9.906;2023-06-04T08:02:31;38.80;27.80
14893;DHT22;7538;53.626;9.906;2023-06-04T08:04:58;38.90;28.00
14893;DHT22;7538;53.626;9.906;2023-06-04T08:07:25;38.90;27.30
14893;DHT22;7538;53.626;9.906;2023-06-04T08:09:52;39.00;27.00
14893;DHT22;7538;53.626;9.906;2023-06-04T08:12:21;38.90;26.30
14893;DHT22;7538;53.626;9.906;2023-06-04T08:14:48;38.90;26.50
14893;DHT22;7538;53.626;9.906;2023-06-04T08:17:17;39.10;26.80
14893;DHT22;7538;53.626;9.906;2023-06-04T08:19:44;39.30;27.20
14893;DHT22;7538;53.626;9.906;2023-06-04T08:22:10;39.30;27.00
14893;DHT22;7538;53.626;9.906;2023-06-04T08:24:37;39.50;26.80
14893;DHT22;7538;53.626;9.906;2023-06-04T08:27:04;39.70;26.70
14893;DHT22;7538;53.626;9.906;2023-06-04T08:29:33;38.10;24.80
14893;DHT22;7538;53.626;9.906;2023-06-04T08:32:01;39.60;25.60
14893;DHT22;7538;53.626;9.906;2023-06-04T08:34:29;39.70;25.40
14893;DHT22;7538;53.626;9.906;2023-06-04T08:36:56;39.80;24.90
14893;DHT22;7538;53.626;9.906;2023-06-04T08:39:23;40.00;25.30
14893;DHT22;7538;53.626;9.906;2023-06-04T08:41:52;40.30;24.90
14893;DHT22;7538;53.626;9.906;2023-06-04T08:44:18;40.60;25.10
14893;DHT22;7538;53.626;9.906;2023-06-04T08:46:49;40.70;24.70
14893;DHT22;7538;53.626;9.906;2023-06-04T08:49:19;40.80;25.10
14893;DHT22;7538;53.626;9.906;2023-06-04T08:51:48;40.80;25.00
14893;DHT22;7538;53.626;9.906;2023-06-04T08:54:16;40.90;24.80
14893;DHT22;7538;53.626;9.906;2023-06-04T08:56:43;41.00;24.90
14893;DHT22;7538;53.626;9.906;2023-06-04T08:59:10;41.10;24.30
14893;DHT22;7538;53.626;9.906;2023-06-04T09:01:39;41.10;24.50
14893;DHT22;7538;53.626;9.906;2023-06-04T09:04:10;41.20;24.50
14893;DHT22;7538;53.626;9.906;2023-06-04T09:06:39;41.30;24.50
14893;DHT22;7538;53.626;9.906;2023-06-04T09:09:09;41.20;24.00
14893;DHT22;7538;53.626;9.906;2023-06-04T09:11:41;40.50;24.60
14893;DHT22;7538;53.626;9.906;2023-06-04T09:14:11;40.00;24.90
14893;DHT22;7538;53.626;9.906;2023-06-04T09:16:45;40.00;25.00
14893;DHT22;7538;53.626;9.906;2023-06-04T09:19:13;40.40;24.80
14893;DHT22;7538;53.626;9.906;2023-06-04T09:21:49;40.80;24.50
14893;DHT22;7538;53.626;9.906;2023-06-04T09:24:18;40.20;24.30
14893;DHT22;7538;53.626;9.906;2023-06-04T09:26:46;39.50;25.00
14893;DHT22;7538;53.626;9.906;2023-06-04T09:29:14;39.20;25.10
14893;DHT22;7538;53.626;9.906;2023-06-04T09:31:41;39.30;24.80
14893;DHT22;7538;53.626;9.906;2023-06-04T09:34:08;39.60;24.60
14893;DHT22;7538;53.626;9.906;2023-06-04T09:36:35;39.40;24.70
14893;DHT22;7538;53.626;9.906;2023-06-04T09:39:02;39.60;24.50
14893;DHT22;7538;53.626;9.906;2023-06-04T09:41:32;41.70;25.20
14893;DHT22;7538;53.626;9.906;2023-06-04T09:44:02;40.30;24.30
14893;DHT22;7538;53.626;9.906;2023-06-04T09:46:31;40.50;24.10
14893;DHT22;7538;53.626;9.906;2023-06-04T09:49:02;40.60;24.50
14893;DHT22;7538;53.626;9.906;2023-06-04T09:51:30;40.70;24.50
14893;DHT22;7538;53.626;9.906;2023-06-04T09:53:58;40.60;24.40
14893;DHT22;7538;53.626;9.906;2023-06-04T09:56:26;40.40;24.50
14893;DHT22;7538;53.626;9.906;2023-06-04T09:58:59;40.30;25.20
14893;DHT22;7538;53.626;9.906;2023-06-04T10:01:28;40.30;25.00
14893;DHT22;7538;53.626;9.906;2023-06-04T10:03:58;40.20;24.90
14893;DHT22;7538;53.626;9.906;2023-06-04T10:06:27;40.00;24.90
14893;DHT22;7538;53.626;9.906;2023-06-04T10:08:58;39.90;24.90
14893;DHT22;7538;53.626;9.906;2023-06-04T10:11:26;39.80;24.90
14893;DHT22;7538;53.626;9.906;2023-06-04T10:14:02;42.10;26.00
14893;DHT22;7538;53.626;9.906;2023-06-04T10:16:30;39.40;25.00
14893;DHT22;7538;53.626;9.906;2023-06-04T10:18:59;39.40;25.30
14893;DHT22;7538;53.626;9.906;2023-06-04T10:21:26;39.50;24.80
14893;DHT22;7538;53.626;9.906;2023-06-04T10:23:57;39.30;24.90
14893;DHT22;7538;53.626;9.906;2023-06-04T10:26:25;39.30;25.30
14893;DHT22;7538;53.626;9.906;2023-06-04T10:28:53;39.30;24.90
14893;DHT22;7538;53.626;9.906;2023-06-04T10:31:21;39.20;25.10
14893;DHT22;7538;53.626;9.906;2023-06-04T10:33:53;40.70;25.90
14893;DHT22;7538;53.626;9.906;2023-06-04T10:36:22;39.40;25.10
14893;DHT22;7538;53.626;9.906;2023-06-04T10:38:50;39.40;24.90
14893;DHT22;7538;53.626;9.906;2023-06-04T10:41:18;38.60;26.00
14893;DHT22;7538;53.626;9.906;2023-06-04T10:43:47;37.70;26.40
14893;DHT22;7538;53.626;9.906;2023-06-04T10:46:16;37.40;26.40
14893;DHT22;7538;53.626;9.906;2023-06-04T10:48:52;37.30;26.40
14893;DHT22;7538;53.626;9.906;2023-06-04T10:51:29;37.00;26.40
14893;DHT22;7538;53.626;9.906;2023-06-04T10:53:56;36.50;26.40
14893;DHT22;7538;53.626;9.906;2023-06-04T10:56:27;35.20;27.00
14893;DHT22;7538;53.626;9.906;2023-06-04T10:58:54;34.80;27.80
14893;DHT22;7538;53.626;9.906;2023-06-04T11:01:25;34.60;27.80
14893;DHT22;7538;53.626;9.906;2023-06-04T11:03:54;34.40;27.90
14893;DHT22;7538;53.626;9.906;2023-06-04T11:06:22;34.00;27.80
14893;DHT22;7538;53.626;9.906;2023-06-04T11:09:01;33.30;28.20
14893;DHT22;7538;53.626;9.906;2023-06-04T11:11:29;32.90;29.00
14893;DHT22;7538;53.626;9.906;2023-06-04T11:13:56;32.30;29.50
14893;DHT22;7538;53.626;9.906;2023-06-04T11:16:33;31.90;29.50
14893;DHT22;7538;53.626;9.906;2023-06-04T11:19:03;31.00;30.10
14893;DHT22;7538;53.626;9.906;2023-06-04T11:21:30;30.40;30.90
14893;DHT22;7538;53.626;9.906;2023-06-04T11:24:00;29.60;31.20
14893;DHT22;7538;53.626;9.906;2023-06-04T11:26:31;29.10;32.70
14893;DHT22;7538;53.626;9.906;2023-06-04T11:28:58;28.60;32.30
14893;DHT22;7538;53.626;9.906;2023-06-04T11:31:25;28.20;33.10
14893;DHT22;7538;53.626;9.906;2023-06-04T11:33:52;27.80;34.10
14893;DHT22;7538;53.626;9.906;2023-06-04T11:36:27;27.70;33.80
14893;DHT22;7538;53.626;9.906;2023-06-04T11:38:55;27.30;34.40
14893;DHT22;7538;53.626;9.906;2023-06-04T11:41:23;27.20;35.40
14893;DHT22;7538;53.626;9.906;2023-06-04T11:43:50;27.00;34.50
14893;DHT22;7538;53.626;9.906;2023-06-04T11:46:17;26.70;34.50
14893;DHT22;7538;53.626;9.906;2023-06-04T11:48:44;26.50;34.60
14893;DHT22;7538;53.626;9.906;2023-06-04T11:51:11;26.40;35.20
14893;DHT22;7538;53.626;9.906;2023-06-04T11:53:40;26.20;34.90
14893;DHT22;7538;53.626;9.906;2023-06-04T11:56:07;26.10;35.10
14893;DHT22;7538;53.626;9.906;2023-06-04T11:58:34;25.70;35.00
14893;DHT22;7538;53.626;9.906;2023-06-04T12:01:02;25.40;35.60
14893;DHT22;7538;53.626;9.906;2023-06-04T12:03:35;25.30;36.20
14893;DHT22;7538;53.626;9.906;2023-06-04T12:06:11;25.30;36.20
14893;DHT22;7538;53.626;9.906;2023-06-04T12:08:46;25.30;36.70
14893;DHT22;7538;53.626;9.906;2023-06-04T12:11:29;25.40;35.90
14893;DHT22;7538;53.626;9.906;2023-06-04T12:13:57;25.50;37.40
14893;DHT22;7538;53.626;9.906;2023-06-04T12:16:25;25.60;35.70
14893;DHT22;7538;53.626;9.906;2023-06-04T12:18:51;25.50;35.90
14893;DHT22;7538;53.626;9.906;2023-06-04T12:21:21;25.60;36.50
14893;DHT22;7538;53.626;9.906;2023-06-04T12:24:05;25.70;36.30
14893;DHT22;7538;53.626;9.906;2023-06-04T12:26:32;25.80;35.40
14893;DHT22;7538;53.626;9.906;2023-06-04T12:29:07;25.70;35.00
14893;DHT22;7538;53.626;9.906;2023-06-04T12:31:35;25.60;35.60
14893;DHT22;7538;53.626;9.906;2023-06-04T12:34:02;25.60;35.50
14893;DHT22;7538;53.626;9.906;2023-06-04T12:36:29;25.50;36.40
14893;DHT22;7538;53.626;9.906;2023-06-04T12:38:59;25.50;36.60
14893;DHT22;7538;53.626;9.906;2023-06-04T12:41:26;25.40;36.50
14893;DHT22;7538;53.626;9.906;2023-06-04T12:43:54;25.30;36.60
14893;DHT22;7538;53.626;9.906;2023-06-04T12:46:21;25.20;36.70
14893;DHT22;7538;53.626;9.906;2023-06-04T12:48:49;25.00;36.60
14893;DHT22;7538;53.626;9.906;2023-06-04T12:51:16;24.90;37.30
14893;DHT22;7538;53.626;9.906;2023-06-04T12:53:43;24.90;38.00
14893;DHT22;7538;53.626;9.906;2023-06-04T12:56:12;24.90;38.80
14893;DHT22;7538;53.626;9.906;2023-06-04T12:58:39;24.60;39.30
14893;DHT22;7538;53.626;9.906;2023-06-04T13:01:06;24.60;40.00
14893;DHT22;7538;53.626;9.906;2023-06-04T13:03:33;24.60;40.60
14893;DHT22;7538;53.626;9.906;2023-06-04T13:06:02;24.70;40.60
14893;DHT22;7538;53.626;9.906;2023-06-04T13:08:29;24.70;41.10
14893;DHT22;7538;53.626;9.906;2023-06-04T13:10:56;24.60;41.50
14893;DHT22;7538;53.626;9.906;2023-06-04T13:13:24;24.60;41.70
14893;DHT22;7538;53.626;9.906;2023-06-04T13:15:51;24.60;41.20
14893;DHT22;7538;53.626;9.906;2023-06-04T13:18:18;24.50;41.30
14893;DHT22;7538;53.626;9.906;2023-06-04T13:20:45;24.40;41.30
14893;DHT22;7538;53.626;9.906;2023-06-04T13:23:14;24.40;41.70
14893;DHT22;7538;53.626;9.906;2023-06-04T13:25:41;24.30;41.40
14893;DHT22;7538;53.626;9.906;2023-06-04T13:28:08;24.30;41.50
14893;DHT22;7538;53.626;9.906;2023-06-04T13:30:38;24.10;41.60
14893;DHT22;7538;53.626;9.906;2023-06-04T13:33:05;26.80;43.10
14893;DHT22;7538;53.626;9.906;2023-06-04T13:35:33;23.90;41.80
14893;DHT22;7538;53.626;9.906;2023-06-04T13:38:01;23.70;41.90
14893;DHT22;7538;53.626;9.906;2023-06-04T13:40:28;23.60;41.70
14893;DHT22;7538;53.626;9.906;2023-06-04T13:42:55;23.80;41.70
14893;DHT22;7538;53.626;9.906;2023-06-04T13:45:22;23.80;42.00
14893;DHT22;7538;53.626;9.906;2023-06-04T13:47:50;23.80;42.20
14893;DHT22;7538;53.626;9.906;2023-06-04T13:50:17;23.90;42.10
14893;DHT22;7538;53.626;9.906;2023-06-04T13:52:44;24.00;41.70
14893;DHT22;7538;53.626;9.906;2023-06-04T13:55:12;24.00;41.20
14893;DHT22;7538;53.626;9.906;2023-06-04T13:57:39;23.80;41.30
14893;DHT22;7538;53.626;9.906;2023-06-04T14:00:07;23.80;41.60
14893;DHT22;7538;53.626;9.906;2023-06-04T14:02:35;23.80;41.60
14893;DHT22;7538;53.626;9.906;2023-06-04T14:05:05;23.70;40.70
14893;DHT22;7538;53.626;9.906;2023-06-04T14:07:32;23.70;41.30
14893;DHT22;7538;53.626;9.906;2023-06-04T14:09:59;23.50;41.30
14893;DHT22;7538;53.626;9.906;2023-06-04T14:12:26;23.50;41.30
14893;DHT22;7538;53.626;9.906;2023-06-04T14:14:53;23.50;41.00
14893;DHT22;7538;53.626;9.906;2023-06-04T14:17:19;23.50;41.00
14893;DHT22;7538;53.626;9.906;2023-06-04T14:19:46;23.70;41.70
14893;DHT22;7538;53.626;9.906;2023-06-04T14:22:14;23.80;41.50
14893;DHT22;7538;53.626;9.906;2023-06-04T14:24:41;23.80;40.90
14893;DHT22;7538;53.626;9.906;2023-06-04T14:27:08;23.90;41.20
14893;DHT22;7538;53.626;9.906;2023-06-04T14:29:36;23.80;41.00
14893;DHT22;7538;53.626;9.906;2023-06-04T14:32:03;23.80;41.10
14893;DHT22;7538;53.626;9.906;2023-06-04T14:34:30;23.80;41.50
14893;DHT22;7538;53.626;9.906;2023-06-04T14:36:59;23.80;41.10
14893;DHT22;7538;53.626;9.906;2023-06-04T14:39:27;23.80;41.20
14893;DHT22;7538;53.626;9.906;2023-06-04T14:41:54;23.80;41.50
14893;DHT22;7538;53.626;9.906;2023-06-04T14:44:21;23.90;41.00
14893;DHT22;7538;53.626;9.906;2023-06-04T14:46:49;23.90;41.10
14893;DHT22;7538;53.626;9.906;2023-06-04T14:49:17;23.90;41.30
14893;DHT22;7538;53.626;9.906;2023-06-04T14:51:45;23.70;41.40
14893;DHT22;7538;53.626;9.906;2023-06-04T14:54:12;23.50;42.00
14893;DHT22;7538;53.626;9.906;2023-06-04T14:56:40;23.40;42.30
14893;DHT22;7538;53.626;9.906;2023-06-04T14:59:07;23.40;42.70
14893;DHT22;7538;53.626;9.906;2023-06-04T15:01:37;23.40;42.60
14893;DHT22;7538;53.626;9.906;2023-06-04T15:04:06;23.30;43.70
14893;DHT22;7538;53.626;9.906;2023-06-04T15:06:33;23.30;44.40
14893;DHT22;7538;53.626;9.906;2023-06-04T15:09:01;23.20;44.80
14893;DHT22;7538;53.626;9.906;2023-06-04T15:11:29;23.20;45.10
14893;DHT22;7538;53.626;9.906;2023-06-04T15:13:57;23.20;45.50
14893;DHT22;7538;53.626;9.906;2023-06-04T15:16:24;23.10;45.40
14893;DHT22;7538;53.626;9.906;2023-06-04T15:18:51;23.00;45.50
14893;DHT22;7538;53.626;9.906;2023-06-04T15:21:17;22.80;45.90
14893;DHT22;7538;53.626;9.906;2023-06-04T15:23:44;22.70;46.60
14893;DHT22;7538;53.626;9.906;2023-06-04T15:26:14;22.60;46.60
14893;DHT22;7538;53.626;9.906;2023-06-04T15:28:41;22.50;47.20
14893;DHT22;7538;53.626;9.906;2023-06-04T15:31:10;22.40;46.80
14893;DHT22;7538;53.626;9.906;2023-06-04T15:33:36;22.40;47.20
14893;DHT22;7538;53.626;9.906;2023-06-04T15:36:04;22.30;47.40
14893;DHT22;7538;53.626;9.906;2023-06-04T15:38:31;22.30;47.20
14893;DHT22;7538;53.626;9.906;2023-06-04T15:40:58;22.40;47.10
14893;DHT22;7538;53.626;9.906;2023-06-04T15:43:25;22.40;47.10
14893;DHT22;7538;53.626;9.906;2023-06-04T15:45:52;22.20;47.10
14893;DHT22;7538;53.626;9.906;2023-06-04T15:48:20;22.20;47.20
14893;DHT22;7538;53.626;9.906;2023-06-04T15:50:47;22.10;47.20